createdAt,value
2023-03-29T00:00:15.874Z,0.01
2023-03-29T00:03:40.348Z,-0.03
2023-03-29T00:06:47.772Z,-0.07
2023-03-29T00:09:50.926Z,-0.12
2023-03-29T00:12:54.396Z,-0.17
2023-03-29T00:15:57.495Z,-0.19
2023-03-29T00:19:00.685Z,-0.22
2023-03-29T00:22:07.510Z,-0.24
2023-03-29T00:25:11.629Z,-0.27
2023-03-29T00:28:14.906Z,-0.31
2023-03-29T00:31:18.590Z,-0.32
2023-03-29T00:34:26.407Z,-0.35
2023-03-29T00:37:32.202Z,-0.39
2023-03-29T00:40:42.258Z,-0.41
2023-03-29T00:44:05.458Z,-0.42
2023-03-29T00:47:08.830Z,-0.43
2023-03-29T00:50:22.607Z,-0.45
2023-03-29T00:53:28.719Z,-0.47
2023-03-29T00:56:37.202Z,-0.50
2023-03-29T00:59:42.925Z,-0.49
2023-03-29T01:02:51.096Z,-0.50
2023-03-29T01:06:02.851Z,-0.51
2023-03-29T01:09:10.428Z,-0.52
2023-03-29T01:12:18.456Z,-0.54
2023-03-29T01:15:27.825Z,-0.55
2023-03-29T01:18:31.494Z,-0.56
2023-03-29T01:21:47.897Z,-0.55
2023-03-29T01:25:18.932Z,-0.52
2023-03-29T01:28:29.094Z,-0.50
2023-03-29T01:31:39.270Z,-0.48
2023-03-29T01:34:48.900Z,-0.46
2023-03-29T01:38:15.966Z,-0.43
2023-03-29T01:41:19.419Z,-0.40
2023-03-29T01:44:25.663Z,-0.39
2023-03-29T01:48:01.619Z,-0.39
2023-03-29T01:51:15.029Z,-0.37
2023-03-29T01:54:26.369Z,-0.36
2023-03-29T01:57:32.079Z,-0.34
2023-03-29T02:00:36.342Z,-0.33
2023-03-29T02:03:45.267Z,-0.33
2023-03-29T02:06:50.456Z,-0.32
2023-03-29T02:09:54.791Z,-0.30
2023-03-29T02:12:58.695Z,-0.28
2023-03-29T02:16:04.841Z,-0.26
2023-03-29T02:19:10.727Z,-0.25
2023-03-29T02:22:16.637Z,-0.25
2023-03-29T02:25:22.564Z,-0.24
2023-03-29T02:28:27.078Z,-0.25
2023-03-29T02:31:41.422Z,-0.23
2023-03-29T02:34:58.703Z,-0.22
2023-03-29T02:38:09.101Z,-0.21
2023-03-29T02:41:13.069Z,-0.23
2023-03-29T02:44:24.638Z,-0.25
2023-03-29T02:47:41.781Z,-0.27
2023-03-29T02:50:47.969Z,-0.28
2023-03-29T02:53:57.246Z,-0.30
2023-03-29T02:57:06.587Z,-0.31
2023-03-29T03:00:11.581Z,-0.34
2023-03-29T03:03:15.725Z,-0.37
2023-03-29T03:06:21.496Z,-0.42
2023-03-29T03:09:24.914Z,-0.44
2023-03-29T03:12:28.814Z,-0.47
2023-03-29T03:15:35.646Z,-0.48
2023-03-29T03:18:39.187Z,-0.49
2023-03-29T03:21:42.379Z,-0.51
2023-03-29T03:24:46.221Z,-0.54
2023-03-29T03:27:50.371Z,-0.57
2023-03-29T03:30:55.162Z,-0.60
2023-03-29T03:34:01.328Z,-0.62
2023-03-29T03:37:13.913Z,-0.65
2023-03-29T03:40:17.430Z,-0.67
2023-03-29T03:43:20.803Z,-0.69
2023-03-29T03:46:24.325Z,-0.70
2023-03-29T03:49:28.223Z,-0.70
2023-03-29T03:52:31.988Z,-0.73
2023-03-29T03:55:35.401Z,-0.77
2023-03-29T03:58:44.648Z,-0.81
2023-03-29T04:01:47.844Z,-0.87
2023-03-29T04:04:54.812Z,-0.92
2023-03-29T04:08:03.240Z,-0.92
2023-03-29T04:11:26.259Z,-0.92
2023-03-29T04:14:31.725Z,-0.91
2023-03-29T04:17:47.770Z,-0.89
2023-03-29T04:20:57.468Z,-0.86
2023-03-29T04:24:01.753Z,-0.83
2023-03-29T04:27:05.460Z,-0.82
2023-03-29T04:30:09.704Z,-0.83
2023-03-29T04:33:35.833Z,-0.87
2023-03-29T04:36:39.594Z,-0.90
2023-03-29T04:39:49.391Z,-0.94
2023-03-29T04:42:54.450Z,-0.99
2023-03-29T04:45:58.626Z,-1.03
2023-03-29T04:49:26.115Z,-1.05
2023-03-29T04:52:33.094Z,-1.08
2023-03-29T04:55:36.667Z,-1.10
2023-03-29T04:58:42.319Z,-1.12
2023-03-29T05:01:45.876Z,-1.13
2023-03-29T05:04:49.300Z,-1.11
2023-03-29T05:07:54.922Z,-1.09
2023-03-29T05:11:02.553Z,-1.07
2023-03-29T05:14:07.420Z,-1.04
2023-03-29T05:17:10.868Z,-1.00
2023-03-29T05:20:14.071Z,-0.94
2023-03-29T05:23:19.388Z,-0.86
2023-03-29T05:26:54.513Z,-0.76
2023-03-29T05:29:57.845Z,-0.66
2023-03-29T05:33:05.799Z,-0.54
2023-03-29T05:36:15.310Z,-0.39
2023-03-29T05:39:24.223Z,-0.25
2023-03-29T05:42:27.708Z,-0.11
2023-03-29T05:45:37.553Z,0.05
2023-03-29T05:48:40.895Z,0.23
2023-03-29T05:51:45.705Z,0.39
2023-03-29T05:54:48.972Z,0.57
2023-03-29T05:57:52.546Z,0.75
2023-03-29T06:01:00.598Z,0.92
2023-03-29T06:04:30.868Z,1.11
2023-03-29T06:08:00.626Z,1.30
2023-03-29T06:11:18.894Z,1.48
2023-03-29T06:14:42.460Z,1.65
2023-03-29T06:17:57.339Z,1.81
2023-03-29T06:21:04.320Z,1.93
2023-03-29T06:24:07.831Z,2.02
2023-03-29T06:27:15.665Z,2.09
2023-03-29T06:30:20.926Z,2.16
2023-03-29T06:33:27.685Z,2.24
2023-03-29T06:36:39.436Z,2.32
2023-03-29T06:39:42.722Z,2.41
2023-03-29T06:42:58.412Z,2.50
2023-03-29T06:46:20.051Z,2.56
2023-03-29T06:49:46.364Z,2.63
2023-03-29T06:53:05.855Z,2.72
2023-03-29T06:56:11.158Z,2.78
2023-03-29T06:59:29.321Z,2.85
2023-03-29T07:02:49.370Z,2.93
2023-03-29T07:05:56.861Z,3.01
2023-03-29T07:09:01.823Z,3.05
2023-03-29T07:12:26.472Z,3.11
2023-03-29T07:15:33.704Z,3.16
2023-03-29T07:19:09.557Z,3.24
2023-03-29T07:22:35.791Z,3.32
2023-03-29T07:25:41.089Z,3.37
2023-03-29T07:28:44.494Z,3.43
2023-03-29T07:31:47.669Z,3.50
2023-03-29T07:35:09.466Z,3.59
2023-03-29T07:38:12.673Z,3.69
2023-03-29T07:41:17.427Z,3.81
2023-03-29T07:44:23.509Z,3.96
2023-03-29T07:47:26.939Z,4.07
2023-03-29T07:50:32.657Z,4.15
2023-03-29T07:53:37.167Z,4.24
2023-03-29T07:56:42.347Z,4.31
2023-03-29T07:59:51.882Z,4.41
2023-03-29T08:02:58.122Z,4.50
2023-03-29T08:06:04.771Z,4.64
2023-03-29T08:09:08.836Z,4.77
2023-03-29T08:12:15.887Z,4.88
2023-03-29T08:15:19.285Z,5.01
2023-03-29T08:18:22.557Z,5.07
2023-03-29T08:21:26.543Z,5.14
2023-03-29T08:24:30.092Z,5.15
2023-03-29T08:27:37.822Z,5.17
2023-03-29T08:30:42.141Z,5.17
2023-03-29T08:33:45.720Z,5.24
2023-03-29T08:37:15.306Z,5.34
2023-03-29T08:40:30.172Z,5.40
2023-03-29T08:44:09.651Z,5.44
2023-03-29T08:47:47.968Z,5.47
2023-03-29T08:50:58.551Z,5.51
2023-03-29T08:54:01.857Z,5.58
2023-03-29T08:57:29.300Z,5.67
2023-03-29T09:00:44.350Z,5.78
2023-03-29T09:03:49.850Z,5.91
2023-03-29T09:07:03.489Z,6.04
2023-03-29T09:10:20.593Z,6.23
2023-03-29T09:13:52.963Z,6.46
2023-03-29T09:17:18.019Z,6.73
2023-03-29T09:20:27.581Z,6.99
2023-03-29T09:24:00.272Z,7.20
2023-03-29T09:27:26.504Z,7.51
2023-03-29T09:30:50.803Z,7.85
2023-03-29T09:34:07.120Z,8.17
2023-03-29T09:37:35.473Z,8.46
2023-03-29T09:40:49.101Z,8.74
2023-03-29T09:44:00.565Z,9.00
2023-03-29T09:47:19.357Z,9.22
2023-03-29T09:50:35.297Z,9.46
2023-03-29T09:53:40.934Z,9.63
2023-03-29T09:57:13.895Z,9.80
2023-03-29T10:00:17.873Z,9.96
2023-03-29T10:03:26.501Z,10.07
2023-03-29T10:06:36.957Z,10.19
2023-03-29T10:09:44.896Z,10.29
2023-03-29T10:12:59.338Z,10.42
2023-03-29T10:16:05.284Z,10.55
2023-03-29T10:19:27.872Z,10.63
2023-03-29T10:22:37.991Z,10.69
2023-03-29T10:25:42.766Z,10.74
2023-03-29T10:28:46.483Z,10.84
2023-03-29T10:31:50.864Z,10.90
2023-03-29T10:34:55.504Z,10.90
2023-03-29T10:38:08.046Z,10.95
2023-03-29T10:41:12.842Z,11.04
2023-03-29T10:44:42.681Z,11.18
2023-03-29T10:47:48.570Z,11.39
2023-03-29T10:50:53.306Z,11.51
2023-03-29T10:54:00.400Z,11.62
2023-03-29T10:57:13.346Z,11.73
2023-03-29T11:00:35.782Z,11.89
2023-03-29T11:03:48.302Z,12.06
2023-03-29T11:07:20.010Z,12.16
2023-03-29T11:10:55.990Z,12.28
2023-03-29T11:14:40.627Z,12.40
2023-03-29T11:17:51.066Z,12.52
2023-03-29T11:21:10.781Z,12.65
2023-03-29T11:24:47.036Z,12.76
2023-03-29T11:27:53.262Z,12.73
2023-03-29T11:30:59.024Z,12.66
2023-03-29T11:34:02.354Z,12.62
2023-03-29T11:37:25.540Z,12.56
2023-03-29T11:40:29.854Z,12.46
2023-03-29T11:43:46.810Z,12.46
2023-03-29T11:47:01.582Z,12.47
2023-03-29T11:50:22.637Z,12.41
2023-03-29T11:53:37.223Z,12.24
2023-03-29T11:56:46.896Z,12.13
2023-03-29T12:00:15.955Z,12.02
2023-03-29T12:03:32.445Z,11.84
2023-03-29T12:07:00.817Z,11.65
2023-03-29T12:10:07.050Z,11.60
2023-03-29T12:13:56.280Z,11.65
2023-03-29T12:17:03.423Z,11.65
2023-03-29T12:20:29.392Z,11.63
2023-03-29T12:23:35.547Z,11.61
2023-03-29T12:26:57.851Z,11.60
2023-03-29T12:30:38.516Z,11.62
2023-03-29T12:34:20.040Z,11.69
2023-03-29T12:38:21.268Z,11.74
2023-03-29T12:42:14.843Z,11.71
2023-03-29T12:45:43.468Z,11.59
2023-03-29T12:48:55.574Z,11.44
2023-03-29T12:52:02.467Z,11.31
2023-03-29T12:55:23.890Z,11.23
2023-03-29T12:58:39.603Z,11.15
2023-03-29T13:02:00.079Z,11.10
2023-03-29T13:05:05.639Z,11.07
2023-03-29T13:08:35.105Z,11.02
2023-03-29T13:11:42.737Z,10.96
2023-03-29T13:14:51.924Z,10.88
2023-03-29T13:18:22.046Z,10.78
2023-03-29T13:21:43.730Z,10.72
2023-03-29T13:25:02.255Z,10.66
2023-03-29T13:28:20.424Z,10.62
2023-03-29T13:31:47.153Z,10.60
2023-03-29T13:34:58.556Z,10.58
2023-03-29T13:38:22.270Z,10.59
2023-03-29T13:41:32.253Z,10.55
2023-03-29T13:44:45.564Z,10.53
2023-03-29T13:47:58.722Z,10.49
2023-03-29T13:51:13.370Z,10.44
2023-03-29T13:54:35.029Z,10.46
2023-03-29T13:57:49.747Z,10.52
2023-03-29T14:01:16.642Z,10.54
2023-03-29T14:04:26.688Z,10.60
2023-03-29T14:07:33.454Z,10.68
2023-03-29T14:10:42.425Z,10.69
2023-03-29T14:13:45.663Z,10.65
2023-03-29T14:16:49.484Z,10.65
2023-03-29T14:19:53.685Z,10.69
2023-03-29T14:22:56.940Z,10.62
2023-03-29T14:26:10.650Z,10.48
2023-03-29T14:29:14.638Z,10.38
2023-03-29T14:32:19.859Z,10.26
2023-03-29T14:35:30.867Z,10.16
2023-03-29T14:38:37.621Z,10.13
2023-03-29T14:41:48.700Z,10.09
2023-03-29T14:44:58.277Z,10.03
2023-03-29T14:48:02.341Z,10.00
2023-03-29T14:51:06.536Z,9.95
2023-03-29T14:54:19.545Z,9.93
2023-03-29T14:57:29.143Z,9.94
2023-03-29T15:00:44.086Z,9.91
2023-03-29T15:03:57.081Z,9.87
2023-03-29T15:07:00.416Z,9.85
2023-03-29T15:10:06.478Z,9.83
2023-03-29T15:13:19.665Z,9.78
2023-03-29T15:16:22.964Z,9.75
2023-03-29T15:19:27.290Z,9.70
2023-03-29T15:22:34.570Z,9.67
2023-03-29T15:25:46.316Z,9.62
2023-03-29T15:28:55.648Z,9.60
2023-03-29T15:31:59.716Z,9.53
2023-03-29T15:35:06.384Z,9.47
2023-03-29T15:38:12.675Z,9.42
2023-03-29T15:41:16.530Z,9.40
2023-03-29T15:44:33.245Z,9.38
2023-03-29T15:47:36.370Z,9.38
2023-03-29T15:50:39.544Z,9.38
2023-03-29T15:53:42.705Z,9.37
2023-03-29T15:57:08.698Z,9.38
2023-03-29T16:00:13.791Z,9.35
2023-03-29T16:03:18.026Z,9.35
2023-03-29T16:06:23.901Z,9.32
2023-03-29T16:09:27.418Z,9.28
2023-03-29T16:12:30.606Z,9.22
2023-03-29T16:15:36.968Z,9.17
2023-03-29T16:18:40.080Z,9.11
2023-03-29T16:21:43.194Z,9.05
2023-03-29T16:24:46.364Z,9.00
2023-03-29T16:27:58.122Z,8.96
2023-03-29T16:31:01.250Z,8.93
2023-03-29T16:34:05.306Z,8.89
2023-03-29T16:37:08.618Z,8.85
2023-03-29T16:40:12.587Z,8.82
2023-03-29T16:43:17.116Z,8.80
2023-03-29T16:46:20.941Z,8.77
2023-03-29T16:49:24.448Z,8.74
2023-03-29T16:52:27.729Z,8.70
2023-03-29T16:55:30.902Z,8.67
2023-03-29T16:58:34.064Z,8.65
2023-03-29T17:01:37.380Z,8.63
2023-03-29T17:04:40.938Z,8.61
2023-03-29T17:07:44.549Z,8.59
2023-03-29T17:10:53.042Z,8.57
2023-03-29T17:13:56.266Z,8.54
2023-03-29T17:16:59.576Z,8.51
2023-03-29T17:20:06.430Z,8.48
2023-03-29T17:23:10.031Z,8.45
2023-03-29T17:26:13.404Z,8.42
2023-03-29T17:29:16.745Z,8.41
2023-03-29T17:32:19.831Z,8.39
2023-03-29T17:35:22.944Z,8.35
2023-03-29T17:38:27.190Z,8.33
2023-03-29T17:41:31.049Z,8.31
2023-03-29T17:44:34.572Z,8.27
2023-03-29T17:47:38.292Z,8.27
2023-03-29T17:50:41.365Z,8.26
2023-03-29T17:53:44.566Z,8.24
2023-03-29T17:56:48.884Z,8.24
2023-03-29T17:59:52.371Z,8.22
2023-03-29T18:02:55.650Z,8.19
2023-03-29T18:05:58.946Z,8.16
2023-03-29T18:09:02.067Z,8.13
2023-03-29T18:12:05.528Z,8.09
2023-03-29T18:15:09.046Z,8.07
2023-03-29T18:18:12.071Z,8.05
2023-03-29T18:21:16.853Z,8.05
2023-03-29T18:24:20.009Z,8.02
2023-03-29T18:27:23.183Z,8.00
2023-03-29T18:30:26.339Z,7.97
2023-03-29T18:33:35.158Z,7.94
2023-03-29T18:36:38.549Z,7.93
2023-03-29T18:39:41.858Z,7.91
2023-03-29T18:42:45.001Z,7.91
2023-03-29T18:45:48.421Z,7.88
2023-03-29T18:48:53.372Z,7.86
2023-03-29T18:51:56.859Z,7.84
2023-03-29T18:54:59.969Z,7.81
2023-03-29T18:58:03.594Z,7.78
2023-03-29T19:01:07.844Z,7.76
2023-03-29T19:04:11.584Z,7.73
2023-03-29T19:07:15.160Z,7.71
2023-03-29T19:10:18.434Z,7.69
2023-03-29T19:13:21.704Z,7.67
2023-03-29T19:16:25.778Z,7.65
2023-03-29T19:19:28.957Z,7.64
2023-03-29T19:22:33.965Z,7.62
2023-03-29T19:25:37.948Z,7.60
2023-03-29T19:28:41.133Z,7.59
2023-03-29T19:31:44.282Z,7.56
2023-03-29T19:34:47.699Z,7.56
2023-03-29T19:37:50.816Z,7.54
2023-03-29T19:40:54.000Z,7.53
2023-03-29T19:43:57.111Z,7.50
2023-03-29T19:47:00.394Z,7.49
2023-03-29T19:50:04.903Z,7.48
2023-03-29T19:53:08.911Z,7.47
2023-03-29T19:56:15.594Z,7.45
2023-03-29T19:59:20.265Z,7.45
2023-03-29T20:02:23.358Z,7.44
2023-03-29T20:05:27.372Z,7.43
2023-03-29T20:08:30.559Z,7.41
2023-03-29T20:11:33.803Z,7.39
2023-03-29T20:14:40.259Z,7.38
2023-03-29T20:17:43.555Z,7.37
2023-03-29T20:20:49.511Z,7.36
2023-03-29T20:23:52.648Z,7.34
2023-03-29T20:26:55.956Z,7.31
2023-03-29T20:30:05.112Z,7.29
2023-03-29T20:33:08.535Z,7.27
2023-03-29T20:36:12.472Z,7.25
2023-03-29T20:39:18.762Z,7.24
2023-03-29T20:42:24.564Z,7.23
2023-03-29T20:45:27.805Z,7.22
2023-03-29T20:48:30.931Z,7.21
2023-03-29T20:51:33.991Z,7.22
2023-03-29T20:54:38.838Z,7.24
2023-03-29T20:57:42.270Z,7.25
2023-03-29T21:00:46.886Z,7.27
2023-03-29T21:03:50.042Z,7.27
2023-03-29T21:06:53.681Z,7.27
2023-03-29T21:09:56.942Z,7.29
2023-03-29T21:13:02.793Z,7.29
2023-03-29T21:16:06.625Z,7.31
2023-03-29T21:19:10.137Z,7.31
2023-03-29T21:22:13.863Z,7.31
2023-03-29T21:25:17.498Z,7.31
2023-03-29T21:28:20.628Z,7.32
2023-03-29T21:31:23.961Z,7.33
2023-03-29T21:34:27.104Z,7.34
2023-03-29T21:37:30.400Z,7.34
2023-03-29T21:40:36.040Z,7.36
2023-03-29T21:43:39.623Z,7.36
2023-03-29T21:46:42.734Z,7.38
2023-03-29T21:49:45.853Z,7.39
2023-03-29T21:52:49.006Z,7.41
2023-03-29T21:55:52.554Z,7.42
2023-03-29T21:58:55.928Z,7.43
2023-03-29T22:01:59.110Z,7.44
2023-03-29T22:05:02.278Z,7.45
2023-03-29T22:08:06.682Z,7.46
2023-03-29T22:11:13.849Z,7.45
2023-03-29T22:14:17.001Z,7.46
2023-03-29T22:17:20.112Z,7.47
2023-03-29T22:20:24.350Z,7.47
2023-03-29T22:23:27.802Z,7.45
2023-03-29T22:26:32.525Z,7.45
2023-03-29T22:29:35.681Z,7.45
2023-03-29T22:32:38.797Z,7.45
2023-03-29T22:35:42.264Z,7.44
2023-03-29T22:38:46.399Z,7.44
2023-03-29T22:41:49.593Z,7.44
2023-03-29T22:44:52.651Z,7.47
2023-03-29T22:47:55.875Z,7.47
2023-03-29T22:50:59.347Z,7.47
2023-03-29T22:54:02.494Z,7.48
2023-03-29T22:57:05.721Z,7.48
2023-03-29T23:00:10.512Z,7.48
2023-03-29T23:03:13.961Z,7.47
2023-03-29T23:06:17.346Z,7.49
2023-03-29T23:09:21.068Z,7.50
2023-03-29T23:12:24.273Z,7.52
2023-03-29T23:15:29.049Z,7.52
2023-03-29T23:18:34.939Z,7.53
2023-03-29T23:21:38.447Z,7.54
2023-03-29T23:24:43.568Z,7.55
2023-03-29T23:27:46.665Z,7.55
2023-03-29T23:31:10.731Z,7.56
2023-03-29T23:34:13.921Z,7.55
2023-03-29T23:37:17.044Z,7.55
2023-03-29T23:40:20.774Z,7.56
2023-03-29T23:43:23.939Z,7.55
2023-03-29T23:46:27.078Z,7.57
2023-03-29T23:49:30.182Z,7.55
2023-03-29T23:52:33.826Z,7.56
2023-03-29T23:55:37.153Z,7.56
2023-03-29T23:58:40.326Z,7.55
